createdAt,value
2019-03-21T00:00:03.150Z,4.81
2019-03-21T00:01:03.153Z,4.79
2019-03-21T00:02:03.156Z,4.76
2019-03-21T00:03:03.248Z,4.69
2019-03-21T00:04:03.154Z,4.69
2019-03-21T00:05:03.216Z,4.67
2019-03-21T00:06:03.169Z,4.69
2019-03-21T00:07:03.203Z,4.67
2019-03-21T00:08:03.245Z,4.67
2019-03-21T00:09:03.234Z,4.65
2019-03-21T00:10:03.257Z,4.65
2019-03-21T00:11:03.183Z,4.63
2019-03-21T00:12:03.140Z,4.62
2019-03-21T00:13:03.239Z,4.6
2019-03-21T00:14:07.529Z,4.55
2019-03-21T00:15:03.195Z,4.56
2019-03-21T00:16:03.160Z,4.51
2019-03-21T00:17:03.169Z,4.53
2019-03-21T00:18:03.144Z,4.55
2019-03-21T00:19:03.157Z,4.56
2019-03-21T00:20:03.141Z,4.57
2019-03-21T00:21:03.123Z,4.6
2019-03-21T00:22:03.109Z,4.6
2019-03-21T00:23:03.137Z,4.57
2019-03-21T00:24:03.195Z,4.55
2019-03-21T00:25:03.119Z,4.59
2019-03-21T00:26:03.100Z,4.62
2019-03-21T00:27:03.132Z,4.62
2019-03-21T00:28:03.102Z,4.66
2019-03-21T00:29:03.134Z,4.7
2019-03-21T00:30:03.105Z,4.77
2019-03-21T00:31:03.190Z,4.76
2019-03-21T00:32:03.358Z,4.8
2019-03-21T00:33:03.145Z,4.84
2019-03-21T00:34:03.183Z,4.88
2019-03-21T00:35:03.153Z,4.9
2019-03-21T00:36:03.143Z,4.91
2019-03-21T00:37:03.140Z,4.93
2019-03-21T00:38:03.148Z,4.93
2019-03-21T00:39:03.189Z,4.97
2019-03-21T00:40:03.142Z,4.98
2019-03-21T00:41:03.198Z,5
2019-03-21T00:42:03.108Z,5.01
2019-03-21T00:43:03.209Z,5.02
2019-03-21T00:44:03.084Z,5.05
2019-03-21T00:45:03.098Z,5.02
2019-03-21T00:46:03.091Z,5.04
2019-03-21T00:47:03.103Z,5.02
2019-03-21T00:48:03.123Z,5.02
2019-03-21T00:49:03.250Z,5.04
2019-03-21T00:50:03.071Z,5.07
2019-03-21T00:51:03.090Z,5.07
2019-03-21T00:52:03.081Z,5.08
2019-03-21T00:53:03.184Z,5.08
2019-03-21T00:54:03.190Z,5.12
2019-03-21T00:55:03.088Z,5.12
2019-03-21T00:56:03.150Z,5.12
2019-03-21T00:57:03.086Z,5.12
2019-03-21T00:58:03.079Z,5.14
2019-03-21T00:59:03.057Z,5.12
2019-03-21T01:00:03.087Z,5.12
2019-03-21T01:01:03.160Z,5.14
2019-03-21T01:02:03.044Z,5.15
2019-03-21T01:03:04.080Z,5.15
2019-03-21T01:04:03.097Z,5.15
2019-03-21T01:05:03.106Z,5.14
2019-03-21T01:06:03.113Z,5.14
2019-03-21T01:07:03.082Z,5.16
2019-03-21T01:08:03.058Z,5.18
2019-03-21T01:09:03.053Z,5.15
2019-03-21T01:10:03.082Z,5.14
2019-03-21T01:11:03.062Z,5.01
2019-03-21T01:12:03.090Z,4.65
2019-03-21T01:13:03.112Z,4.53
2019-03-21T01:14:03.054Z,4.57
2019-03-21T01:15:03.157Z,4.48
2019-03-21T01:16:03.040Z,4.38
2019-03-21T01:17:03.021Z,4.25
2019-03-21T01:18:03.060Z,4.21
2019-03-21T01:19:03.062Z,4.18
2019-03-21T01:20:03.351Z,4.25
2019-03-21T01:21:03.041Z,4.29
2019-03-21T01:22:03.073Z,4.26
2019-03-21T01:23:03.038Z,4.15
2019-03-21T01:24:03.042Z,4.17
2019-03-21T01:25:03.057Z,4.19
2019-03-21T01:26:03.023Z,4.25
2019-03-21T01:27:03.009Z,4.29
2019-03-21T01:28:03.039Z,4.18
2019-03-21T01:29:03.036Z,4.01
2019-03-21T01:30:03.028Z,4.01
2019-03-21T01:31:03.016Z,3.97
2019-03-21T01:32:03.018Z,3.87
2019-03-21T01:33:03.019Z,3.74
2019-03-21T01:34:03.114Z,3.55
2019-03-21T01:35:03.011Z,3.44
2019-03-21T01:36:03.214Z,3.39
2019-03-21T01:37:03.281Z,3.32
2019-03-21T01:38:03.010Z,3.27
2019-03-21T01:39:03.050Z,3.27
2019-03-21T01:40:03.005Z,3.2
2019-03-21T01:41:02.989Z,3.25
2019-03-21T01:42:03.039Z,3.18
2019-03-21T01:43:02.977Z,3.15
2019-03-21T01:44:02.989Z,3.1
2019-03-21T01:45:03.006Z,3.12
2019-03-21T01:46:03.072Z,3.01
2019-03-21T01:47:02.984Z,2.96
2019-03-21T01:48:02.966Z,2.87
2019-03-21T01:49:02.990Z,2.75
2019-03-21T01:50:02.977Z,2.62
2019-03-21T01:51:03.002Z,2.56
2019-03-21T01:52:02.990Z,2.56
2019-03-21T01:53:03.015Z,2.59
2019-03-21T01:54:02.964Z,2.58
2019-03-21T01:55:02.970Z,2.54
2019-03-21T01:56:03.018Z,2.58
2019-03-21T01:57:02.980Z,2.51
2019-03-21T01:58:03.064Z,2.54
2019-03-21T01:59:03.186Z,2.47
2019-03-21T02:00:03.043Z,2.48
2019-03-21T02:01:03.000Z,2.49
2019-03-21T02:02:02.965Z,2.45
2019-03-21T02:03:03.015Z,2.38
2019-03-21T02:04:02.958Z,2.33
2019-03-21T02:05:02.982Z,2.28
2019-03-21T02:06:02.961Z,2.38
2019-03-21T02:07:02.955Z,2.45
2019-03-21T02:08:02.960Z,2.54
2019-03-21T02:09:02.991Z,2.55
2019-03-21T02:10:02.975Z,2.64
2019-03-21T02:11:02.980Z,2.68
2019-03-21T02:12:03.002Z,2.77
2019-03-21T02:13:02.987Z,2.8
2019-03-21T02:14:02.951Z,2.84
2019-03-21T02:15:02.952Z,2.87
2019-03-21T02:16:03.014Z,2.9
2019-03-21T02:17:02.989Z,2.9
2019-03-21T02:18:02.955Z,2.94
2019-03-21T02:19:02.960Z,2.96
2019-03-21T02:20:03.169Z,2.99
2019-03-21T02:21:02.955Z,3.01
2019-03-21T02:22:02.948Z,3.03
2019-03-21T02:23:03.031Z,2.97
2019-03-21T02:24:02.928Z,2.99
2019-03-21T02:25:02.954Z,2.94
2019-03-21T02:26:02.960Z,2.96
2019-03-21T02:27:02.914Z,2.97
2019-03-21T02:28:02.976Z,3.01
2019-03-21T02:29:02.988Z,3.04
2019-03-21T02:30:02.989Z,3.04
2019-03-21T02:31:02.956Z,3.07
2019-03-21T02:32:02.939Z,3.08
2019-03-21T02:33:02.941Z,3.06
2019-03-21T02:34:02.970Z,3.07
2019-03-21T02:35:02.932Z,3.07
2019-03-21T02:36:02.986Z,3.07
2019-03-21T02:37:02.950Z,3.1
2019-03-21T02:38:02.927Z,3.11
2019-03-21T02:39:02.956Z,3.1
2019-03-21T02:40:03.063Z,3.1
2019-03-21T02:41:02.930Z,3.1
2019-03-21T02:42:02.931Z,3.08
2019-03-21T02:43:02.987Z,3.07
2019-03-21T02:44:02.955Z,3.11
2019-03-21T02:45:09.911Z,3.1
2019-03-21T02:46:02.924Z,3.11
2019-03-21T02:47:02.909Z,3.11
2019-03-21T02:48:02.922Z,3.14
2019-03-21T02:49:02.916Z,3.12
2019-03-21T02:50:02.912Z,3.15
2019-03-21T02:51:02.897Z,3.14
2019-03-21T02:52:02.921Z,3.17
2019-03-21T02:53:02.925Z,3.18
2019-03-21T02:54:02.963Z,3.22
2019-03-21T02:55:02.903Z,3.21
2019-03-21T02:56:02.893Z,3.24
2019-03-21T02:57:02.925Z,3.25
2019-03-21T02:58:02.954Z,3.27
2019-03-21T02:59:02.923Z,3.31
2019-03-21T03:00:02.957Z,3.34
2019-03-21T03:01:02.886Z,3.38
2019-03-21T03:02:02.874Z,3.41
2019-03-21T03:03:02.940Z,3.42
2019-03-21T03:04:02.917Z,3.41
2019-03-21T03:05:02.884Z,3.44
2019-03-21T03:06:02.890Z,3.44
2019-03-21T03:07:02.911Z,3.44
2019-03-21T03:08:02.918Z,3.42
2019-03-21T03:09:02.965Z,3.44
2019-03-21T03:10:02.883Z,3.44
2019-03-21T03:11:02.876Z,3.45
2019-03-21T03:12:02.861Z,3.44
2019-03-21T03:13:03.779Z,3.46
2019-03-21T03:14:04.975Z,3.48
2019-03-21T03:15:02.900Z,3.45
2019-03-21T03:16:02.903Z,3.49
2019-03-21T03:17:02.878Z,3.48
2019-03-21T03:18:02.857Z,3.49
2019-03-21T03:19:02.905Z,3.51
2019-03-21T03:20:02.902Z,3.54
2019-03-21T03:21:02.889Z,3.52
2019-03-21T03:22:02.885Z,3.55
2019-03-21T03:23:02.865Z,3.55
2019-03-21T03:24:02.868Z,3.56
2019-03-21T03:25:03.018Z,3.56
2019-03-21T03:26:02.913Z,3.58
2019-03-21T03:27:02.979Z,3.56
2019-03-21T03:28:03.773Z,3.61
2019-03-21T03:29:02.889Z,3.63
2019-03-21T03:30:02.958Z,3.61
2019-03-21T03:31:03.051Z,3.61
2019-03-21T03:32:02.864Z,3.63
2019-03-21T03:33:02.918Z,3.63
2019-03-21T03:34:02.877Z,3.65
2019-03-21T03:35:02.904Z,3.65
2019-03-21T03:36:02.845Z,3.66
2019-03-21T03:37:02.866Z,3.65
2019-03-21T03:38:02.831Z,3.67
2019-03-21T03:39:02.858Z,3.69
2019-03-21T03:40:02.866Z,3.67
2019-03-21T03:41:02.824Z,3.66
2019-03-21T03:42:08.957Z,3.62
2019-03-21T03:43:02.855Z,3.61
2019-03-21T03:44:02.833Z,3.41
2019-03-21T03:45:02.847Z,3.32
2019-03-21T03:46:03.015Z,3.31
2019-03-21T03:47:02.797Z,3.28
2019-03-21T03:48:02.847Z,3.25
2019-03-21T03:49:03.701Z,3.14
2019-03-21T03:50:02.833Z,2.92
2019-03-21T03:51:02.822Z,3
2019-03-21T03:52:02.824Z,2.87
2019-03-21T03:53:02.845Z,2.66
2019-03-21T03:54:02.909Z,2.49
2019-03-21T03:55:02.982Z,2.26
2019-03-21T03:56:02.815Z,2.11
2019-03-21T03:57:02.849Z,1.99
2019-03-21T03:58:02.833Z,2.03
2019-03-21T03:59:02.820Z,2.03
2019-03-21T04:00:02.849Z,1.96
2019-03-21T04:01:02.929Z,2.04
2019-03-21T04:02:02.776Z,2.11
2019-03-21T04:03:02.886Z,2.17
2019-03-21T04:04:02.796Z,2.2
2019-03-21T04:05:02.837Z,2.3
2019-03-21T04:06:02.785Z,2.34
2019-03-21T04:07:02.796Z,2.34
2019-03-21T04:08:02.840Z,2.34
2019-03-21T04:09:02.799Z,2.43
2019-03-21T04:10:02.755Z,2.44
2019-03-21T04:11:02.791Z,2.48
2019-03-21T04:12:02.770Z,2.51
2019-03-21T04:13:02.815Z,2.52
2019-03-21T04:14:02.773Z,2.55
2019-03-21T04:15:02.808Z,2.56
2019-03-21T04:16:02.772Z,2.61
2019-03-21T04:17:02.768Z,2.62
2019-03-21T04:18:02.799Z,2.65
2019-03-21T04:19:02.779Z,2.68
2019-03-21T04:20:02.787Z,2.69
2019-03-21T04:21:02.813Z,2.71
2019-03-21T04:22:02.768Z,2.72
2019-03-21T04:23:02.787Z,2.76
2019-03-21T04:24:02.762Z,2.77
2019-03-21T04:25:02.796Z,2.79
2019-03-21T04:26:02.797Z,2.79
2019-03-21T04:27:02.763Z,2.82
2019-03-21T04:28:02.818Z,2.83
2019-03-21T04:29:02.809Z,2.84
2019-03-21T04:30:02.757Z,2.87
2019-03-21T04:31:02.824Z,2.87
2019-03-21T04:32:02.784Z,2.9
2019-03-21T04:33:02.822Z,2.87
2019-03-21T04:34:02.748Z,2.86
2019-03-21T04:35:02.750Z,2.84
2019-03-21T04:36:02.752Z,2.84
2019-03-21T04:37:02.772Z,2.83
2019-03-21T04:38:02.719Z,2.82
2019-03-21T04:39:02.746Z,2.77
2019-03-21T04:40:02.759Z,2.76
2019-03-21T04:41:02.785Z,2.66
2019-03-21T04:42:02.793Z,2.62
2019-03-21T04:43:02.758Z,2.61
2019-03-21T04:44:03.634Z,2.55
2019-03-21T04:45:02.735Z,2.47
2019-03-21T04:46:04.156Z,2.43
2019-03-21T04:47:02.718Z,2.4
2019-03-21T04:48:02.765Z,2.2
2019-03-21T04:49:02.713Z,2.26
2019-03-21T04:50:02.701Z,2.3
2019-03-21T04:51:02.736Z,2.28
2019-03-21T04:52:03.034Z,2.3
2019-03-21T04:53:02.711Z,2.3
2019-03-21T04:54:02.711Z,2.3
2019-03-21T04:55:02.730Z,2.33
2019-03-21T04:56:02.697Z,2.31
2019-03-21T04:57:02.697Z,2.28
2019-03-21T04:58:02.699Z,2.24
2019-03-21T04:59:02.691Z,2.2
2019-03-21T05:00:04.036Z,2.13
2019-03-21T05:01:02.725Z,2.11
2019-03-21T05:02:02.756Z,2.04
2019-03-21T05:03:02.712Z,1.97
2019-03-21T05:04:02.690Z,1.94
2019-03-21T05:05:02.777Z,1.87
2019-03-21T05:06:02.750Z,1.89
2019-03-21T05:07:02.694Z,1.83
2019-03-21T05:08:02.727Z,1.82
2019-03-21T05:09:02.715Z,1.85
2019-03-21T05:10:02.728Z,1.87
2019-03-21T05:11:03.663Z,1.9
2019-03-21T05:12:02.688Z,1.96
2019-03-21T05:13:02.964Z,2
2019-03-21T05:14:02.682Z,2
2019-03-21T05:15:02.714Z,2.04
2019-03-21T05:16:15.292Z,2.06
2019-03-21T05:17:02.684Z,2.06
2019-03-21T05:18:02.680Z,2.09
2019-03-21T05:19:02.746Z,2.13
2019-03-21T05:20:02.764Z,2.11
2019-03-21T05:21:02.695Z,2.13
2019-03-21T05:22:02.694Z,2.14
2019-03-21T05:23:02.677Z,2.13
2019-03-21T05:24:02.665Z,2.14
2019-03-21T05:25:02.646Z,2.11
2019-03-21T05:26:04.415Z,2.13
2019-03-21T05:27:02.663Z,2.1
2019-03-21T05:28:02.661Z,2.11
2019-03-21T05:29:02.647Z,2.1
2019-03-21T05:30:03.536Z,2.13
2019-03-21T05:31:02.628Z,2.11
2019-03-21T05:32:04.040Z,2.13
2019-03-21T05:33:02.665Z,2.11
2019-03-21T05:34:02.909Z,2.14
2019-03-21T05:35:02.647Z,2.14
2019-03-21T05:36:02.645Z,2.16
2019-03-21T05:37:02.647Z,2.16
2019-03-21T05:38:02.633Z,2.16
2019-03-21T05:39:02.690Z,2.17
2019-03-21T05:40:03.163Z,2.16
2019-03-21T05:41:02.663Z,2.13
2019-03-21T05:42:02.646Z,2.03
2019-03-21T05:43:02.679Z,2.01
2019-03-21T05:44:02.640Z,2
2019-03-21T05:45:02.625Z,2.01
2019-03-21T05:46:02.636Z,2.04
2019-03-21T05:47:02.618Z,2.06
2019-03-21T05:48:02.650Z,2.06
2019-03-21T05:49:02.604Z,2.1
2019-03-21T05:50:02.630Z,2.11
2019-03-21T05:51:02.637Z,2.14
2019-03-21T05:52:02.635Z,2.14
2019-03-21T05:53:02.633Z,2.18
2019-03-21T05:54:02.686Z,2.18
2019-03-21T05:55:02.619Z,2.2
2019-03-21T05:56:02.759Z,2.21
2019-03-21T05:57:02.848Z,2.28
2019-03-21T05:58:02.654Z,2.28
2019-03-21T05:59:02.648Z,2.28
2019-03-21T06:00:02.606Z,2.31
2019-03-21T06:01:02.621Z,2.31
2019-03-21T06:02:02.672Z,2.31
2019-03-21T06:03:02.585Z,2.34
2019-03-21T06:04:02.980Z,2.37
2019-03-21T06:05:02.588Z,2.36
2019-03-21T06:06:02.637Z,2.37
2019-03-21T06:07:02.596Z,2.4
2019-03-21T06:08:02.628Z,2.37
2019-03-21T06:09:02.623Z,2.4
2019-03-21T06:10:02.580Z,2.41
2019-03-21T06:11:02.581Z,2.4
2019-03-21T06:12:02.587Z,2.4
2019-03-21T06:13:02.572Z,2.4
2019-03-21T06:14:02.645Z,2.38
2019-03-21T06:15:02.617Z,2.4
2019-03-21T06:16:02.613Z,2.41
2019-03-21T06:17:02.603Z,2.41
2019-03-21T06:18:02.678Z,2.45
2019-03-21T06:19:03.507Z,2.48
2019-03-21T06:20:04.555Z,2.43
2019-03-21T06:21:02.617Z,2.45
2019-03-21T06:22:02.581Z,2.48
2019-03-21T06:23:02.582Z,2.48
2019-03-21T06:24:02.609Z,2.51
2019-03-21T06:25:02.581Z,2.51
2019-03-21T06:26:02.565Z,2.54
2019-03-21T06:27:15.162Z,2.54
2019-03-21T06:28:02.636Z,2.58
2019-03-21T06:29:02.562Z,2.59
2019-03-21T06:30:02.647Z,2.62
2019-03-21T06:31:02.569Z,2.64
2019-03-21T06:32:02.580Z,2.58
2019-03-21T06:33:02.560Z,2.56
2019-03-21T06:34:02.684Z,2.61
2019-03-21T06:35:02.823Z,2.65
2019-03-21T06:36:02.553Z,2.65
2019-03-21T06:37:02.544Z,2.65
2019-03-21T06:38:02.561Z,2.66
2019-03-21T06:39:02.592Z,2.71
2019-03-21T06:40:03.690Z,2.73
2019-03-21T06:41:02.739Z,2.76
2019-03-21T06:42:08.813Z,2.77
2019-03-21T06:43:05.514Z,2.82
2019-03-21T06:44:02.540Z,2.83
2019-03-21T06:45:02.570Z,2.86
2019-03-21T06:46:02.533Z,2.86
2019-03-21T06:47:02.571Z,2.9
2019-03-21T06:48:02.607Z,2.93
2019-03-21T06:49:03.472Z,2.9
2019-03-21T06:50:02.575Z,2.93
2019-03-21T06:51:02.549Z,2.96
2019-03-21T06:52:02.564Z,3
2019-03-21T06:53:03.555Z,3.01
2019-03-21T06:54:02.531Z,3.04
2019-03-21T06:55:02.558Z,3.06
2019-03-21T06:56:02.564Z,3.1
2019-03-21T06:57:03.019Z,3.11
2019-03-21T06:58:02.602Z,3.15
2019-03-21T06:59:02.548Z,3.18
2019-03-21T07:00:02.523Z,3.18
2019-03-21T07:01:02.787Z,3.25
2019-03-21T07:02:02.569Z,3.25
2019-03-21T07:03:02.496Z,3.31
2019-03-21T07:04:07.824Z,3.32
2019-03-21T07:05:02.537Z,3.35
2019-03-21T07:06:02.498Z,3.39
2019-03-21T07:07:08.812Z,3.44
2019-03-21T07:08:02.585Z,3.45
2019-03-21T07:09:02.514Z,3.49
2019-03-21T07:10:02.578Z,3.52
2019-03-21T07:11:02.509Z,3.56
2019-03-21T07:12:02.632Z,3.62
2019-03-21T07:13:02.540Z,3.61
2019-03-21T07:14:02.534Z,3.65
2019-03-21T07:15:04.715Z,3.67
2019-03-21T07:16:02.563Z,3.69
2019-03-21T07:17:02.511Z,3.69
2019-03-21T07:18:02.491Z,3.74
2019-03-21T07:19:02.496Z,3.76
2019-03-21T07:20:02.548Z,3.8
2019-03-21T07:21:02.491Z,3.82
2019-03-21T07:22:02.542Z,3.86
2019-03-21T07:23:02.698Z,3.9
2019-03-21T07:24:02.531Z,3.93
2019-03-21T07:25:02.486Z,3.94
2019-03-21T07:26:02.475Z,4.01
2019-03-21T07:27:02.501Z,4.04
2019-03-21T07:28:02.492Z,4.05
2019-03-21T07:29:02.483Z,4.1
2019-03-21T07:30:02.532Z,4.11
2019-03-21T07:31:02.516Z,4.17
2019-03-21T07:32:02.503Z,4.18
2019-03-21T07:33:02.464Z,4.22
2019-03-21T07:34:02.448Z,4.26
2019-03-21T07:35:02.462Z,4.3
2019-03-21T07:36:02.467Z,4.33
2019-03-21T07:37:02.497Z,4.39
2019-03-21T07:38:02.455Z,4.45
2019-03-21T07:39:02.449Z,4.49
2019-03-21T07:40:02.479Z,4.51
2019-03-21T07:41:02.456Z,4.6
2019-03-21T07:42:02.495Z,4.6
2019-03-21T07:43:02.450Z,4.65
2019-03-21T07:44:02.476Z,4.67
2019-03-21T07:45:02.472Z,4.73
2019-03-21T07:46:02.440Z,4.76
2019-03-21T07:47:13.582Z,4.81
2019-03-21T07:48:05.557Z,4.81
2019-03-21T07:49:02.453Z,4.86
2019-03-21T07:50:02.442Z,4.91
2019-03-21T07:51:02.516Z,4.94
2019-03-21T07:52:02.491Z,5
2019-03-21T07:53:02.454Z,5.02
2019-03-21T07:54:02.508Z,5.07
2019-03-21T07:55:02.466Z,5.14
2019-03-21T07:56:02.440Z,5.18
2019-03-21T07:57:02.522Z,5.26
2019-03-21T07:58:02.427Z,5.25
2019-03-21T07:59:03.321Z,5.28
2019-03-21T08:00:02.432Z,5.3
2019-03-21T08:01:03.303Z,5.32
2019-03-21T08:02:02.401Z,5.36
2019-03-21T08:03:02.492Z,5.38
2019-03-21T08:04:03.576Z,5.45
2019-03-21T08:05:03.682Z,5.54
2019-03-21T08:06:02.807Z,5.62
2019-03-21T08:07:02.488Z,5.63
2019-03-21T08:08:02.465Z,5.69
2019-03-21T08:09:02.418Z,5.66
2019-03-21T08:10:02.412Z,5.7
2019-03-21T08:11:02.422Z,5.74
2019-03-21T08:12:02.410Z,5.77
2019-03-21T08:13:03.291Z,5.87
2019-03-21T08:14:03.334Z,5.94
2019-03-21T08:15:03.525Z,6
2019-03-21T08:16:02.400Z,6.09
2019-03-21T08:17:08.830Z,6.11
2019-03-21T08:18:02.417Z,6.15
2019-03-21T08:19:02.963Z,6.11
2019-03-21T08:20:02.404Z,6.12
2019-03-21T08:21:02.417Z,6.19
2019-03-21T08:22:02.425Z,6.23
2019-03-21T08:23:02.426Z,6.25
2019-03-21T08:24:02.551Z,6.28
2019-03-21T08:25:02.384Z,6.33
2019-03-21T08:26:02.410Z,6.36
2019-03-21T08:27:02.395Z,6.4
2019-03-21T08:28:02.478Z,6.51
2019-03-21T08:29:02.415Z,6.6
2019-03-21T08:30:02.366Z,6.57
2019-03-21T08:31:02.395Z,6.65
2019-03-21T08:32:03.275Z,6.73
2019-03-21T08:33:03.447Z,6.77
2019-03-21T08:34:02.472Z,6.83
2019-03-21T08:35:04.664Z,6.77
2019-03-21T08:36:02.391Z,6.85
2019-03-21T08:37:02.415Z,6.87
2019-03-21T08:38:02.412Z,6.91
2019-03-21T08:39:02.387Z,6.95
2019-03-21T08:40:02.361Z,6.94
2019-03-21T08:41:02.351Z,6.94
2019-03-21T08:42:02.366Z,6.98
2019-03-21T08:43:02.356Z,7.01
2019-03-21T08:44:02.462Z,7.05
2019-03-21T08:45:02.354Z,7.16
2019-03-21T08:46:02.357Z,7.18
2019-03-21T08:47:02.388Z,7.2
2019-03-21T08:48:02.355Z,7.27
2019-03-21T08:49:02.349Z,7.4
2019-03-21T08:50:02.385Z,7.48
2019-03-21T08:51:09.053Z,7.41
2019-03-21T08:52:02.404Z,7.43
2019-03-21T08:53:02.362Z,7.48
2019-03-21T08:54:02.381Z,7.58
2019-03-21T08:55:02.377Z,7.84
2019-03-21T08:56:02.378Z,7.93
2019-03-21T08:57:02.380Z,8.09
2019-03-21T08:58:02.332Z,8.31
2019-03-21T08:59:02.341Z,8.3
2019-03-21T09:00:02.410Z,8.38
2019-03-21T09:01:02.330Z,8.49
2019-03-21T09:02:02.374Z,8.61
2019-03-21T09:03:02.329Z,8.68
2019-03-21T09:04:02.321Z,8.74
2019-03-21T09:05:02.414Z,8.78
2019-03-21T09:06:02.324Z,8.92
2019-03-21T09:07:02.352Z,9
2019-03-21T09:08:02.352Z,9
2019-03-21T09:09:02.401Z,9.06
2019-03-21T09:10:02.430Z,9.1
2019-03-21T09:11:02.317Z,9.17
2019-03-21T09:12:02.308Z,9.14
2019-03-21T09:13:02.363Z,9.16
2019-03-21T09:14:02.306Z,9.23
2019-03-21T09:15:02.326Z,9.24
2019-03-21T09:16:02.329Z,9.33
2019-03-21T09:17:02.344Z,9.37
2019-03-21T09:18:02.336Z,9.42
2019-03-21T09:19:02.401Z,9.49
2019-03-21T09:20:02.351Z,9.54
2019-03-21T09:21:02.766Z,9.59
2019-03-21T09:22:02.377Z,9.65
2019-03-21T09:23:02.407Z,9.69
2019-03-21T09:24:02.302Z,9.78
2019-03-21T09:25:05.057Z,9.79
2019-03-21T09:26:02.369Z,9.81
2019-03-21T09:27:02.459Z,9.85
2019-03-21T09:28:03.324Z,9.9
2019-03-21T09:29:02.325Z,9.96
2019-03-21T09:30:02.332Z,9.96
2019-03-21T09:31:02.315Z,9.97
2019-03-21T09:32:02.329Z,9.97
2019-03-21T09:33:02.301Z,9.96
2019-03-21T09:34:02.293Z,9.97
2019-03-21T09:35:02.342Z,10
2019-03-21T09:36:02.559Z,10.06
2019-03-21T09:37:04.452Z,10.1
2019-03-21T09:38:02.704Z,10.14
2019-03-21T09:39:02.282Z,10.2
2019-03-21T09:40:02.415Z,10.24
2019-03-21T09:41:02.289Z,10.23
2019-03-21T09:42:02.351Z,10.24
2019-03-21T09:43:03.515Z,10.31
2019-03-21T09:44:02.297Z,10.32
2019-03-21T09:45:02.270Z,10.39
2019-03-21T09:46:03.228Z,10.52
2019-03-21T09:47:02.304Z,10.58
2019-03-21T09:48:02.311Z,10.65
2019-03-21T09:49:02.299Z,10.73
2019-03-21T09:50:02.280Z,10.75
2019-03-21T09:51:03.170Z,10.8
2019-03-21T09:52:02.261Z,10.9
2019-03-21T09:53:02.262Z,10.9
2019-03-21T09:54:10.143Z,10.96
2019-03-21T09:55:02.313Z,10.93
2019-03-21T09:56:02.296Z,10.96
2019-03-21T09:57:02.907Z,10.97
2019-03-21T09:58:02.606Z,11.14
2019-03-21T09:59:02.332Z,11.17
2019-03-21T10:00:02.342Z,11.21
2019-03-21T10:01:02.373Z,11.21
2019-03-21T10:02:02.266Z,11.28
2019-03-21T10:03:02.359Z,11.31
2019-03-21T10:04:02.297Z,11.28
2019-03-21T10:05:02.357Z,11.31
2019-03-21T10:06:02.270Z,11.42
2019-03-21T10:07:02.270Z,11.39
2019-03-21T10:08:02.262Z,11.47
2019-03-21T10:09:02.226Z,11.47
2019-03-21T10:10:02.262Z,11.59
2019-03-21T10:11:02.349Z,11.64
2019-03-21T10:12:02.264Z,11.66
2019-03-21T10:13:02.227Z,11.73
2019-03-21T10:14:02.248Z,11.69
2019-03-21T10:15:02.235Z,11.73
2019-03-21T10:16:02.224Z,11.69
2019-03-21T10:17:02.250Z,11.7
2019-03-21T10:18:02.255Z,11.79
2019-03-21T10:19:02.392Z,11.83
2019-03-21T10:20:02.234Z,11.86
2019-03-21T10:21:02.235Z,11.82
2019-03-21T10:22:02.245Z,11.87
2019-03-21T10:23:02.255Z,11.86
2019-03-21T10:24:02.284Z,11.86
2019-03-21T10:25:02.230Z,11.9
2019-03-21T10:26:02.206Z,11.98
2019-03-21T10:27:02.213Z,12.07
2019-03-21T10:28:02.292Z,12.16
2019-03-21T10:29:02.262Z,12.2
2019-03-21T10:30:02.222Z,12.18
2019-03-21T10:31:02.207Z,12.23
2019-03-21T10:32:14.846Z,12.28
2019-03-21T10:33:02.222Z,12.31
2019-03-21T10:34:02.210Z,12.37
2019-03-21T10:35:02.228Z,12.42
2019-03-21T10:36:02.214Z,12.51
2019-03-21T10:37:02.249Z,12.57
2019-03-21T10:38:02.208Z,12.65
2019-03-21T10:39:02.243Z,12.74
2019-03-21T10:40:02.258Z,12.74
2019-03-21T10:41:02.229Z,12.73
2019-03-21T10:42:02.208Z,12.76
2019-03-21T10:43:02.201Z,12.73
2019-03-21T10:44:02.182Z,12.74
2019-03-21T10:45:02.273Z,12.76
2019-03-21T10:46:02.252Z,12.79
2019-03-21T10:47:02.306Z,12.87
2019-03-21T10:48:02.183Z,12.97
2019-03-21T10:49:02.224Z,13.04
2019-03-21T10:50:02.229Z,13.04
2019-03-21T10:51:02.212Z,13.03
2019-03-21T10:52:02.207Z,13.04
2019-03-21T10:53:02.233Z,13.14
2019-03-21T10:54:02.199Z,13.14
2019-03-21T10:55:02.177Z,13.17
2019-03-21T10:56:02.206Z,13.25
2019-03-21T10:57:02.210Z,13.22
2019-03-21T10:58:02.174Z,13.28
2019-03-21T10:59:02.177Z,13.27
2019-03-21T11:00:02.674Z,13.34
2019-03-21T11:01:02.166Z,13.32
2019-03-21T11:01:15.858Z,13.36
2019-03-21T11:02:15.819Z,13.34
2019-03-21T11:03:15.871Z,13.36
2019-03-21T11:04:15.803Z,13.36
2019-03-21T11:05:15.813Z,13.39
2019-03-21T11:06:15.792Z,13.47
2019-03-21T11:07:15.795Z,13.49
2019-03-21T11:08:15.756Z,13.49
2019-03-21T11:09:15.782Z,13.55
2019-03-21T11:10:15.769Z,13.56
2019-03-21T11:11:15.775Z,13.6
2019-03-21T11:12:15.749Z,13.62
2019-03-21T11:13:15.787Z,13.56
2019-03-21T11:14:15.774Z,13.63
2019-03-21T11:15:15.803Z,13.63
2019-03-21T11:16:15.777Z,13.6
2019-03-21T11:17:15.790Z,13.69
2019-03-21T11:18:15.755Z,13.76
2019-03-21T11:19:15.870Z,13.73
2019-03-21T11:20:15.825Z,13.77
2019-03-21T11:21:15.755Z,13.84
2019-03-21T11:22:15.785Z,13.9
2019-03-21T11:23:15.920Z,14.01
2019-03-21T11:24:15.898Z,13.97
2019-03-21T11:25:15.801Z,13.91
2019-03-21T11:26:15.871Z,13.91
2019-03-21T11:27:15.861Z,13.98
2019-03-21T11:28:18.017Z,14.05
2019-03-21T11:29:15.802Z,14.07
2019-03-21T11:30:16.595Z,14.05
2019-03-21T11:31:15.757Z,14.19
2019-03-21T11:32:15.784Z,14.32
2019-03-21T11:33:15.803Z,14.31
2019-03-21T11:34:15.737Z,14.27
2019-03-21T11:35:15.756Z,14.31
2019-03-21T11:36:15.765Z,14.36
2019-03-21T11:37:15.734Z,14.38
2019-03-21T11:38:15.822Z,14.4
2019-03-21T11:39:15.729Z,14.39
2019-03-21T11:40:15.798Z,14.42
2019-03-21T11:41:15.745Z,14.46
2019-03-21T11:42:15.769Z,14.46
2019-03-21T11:43:15.805Z,14.51
2019-03-21T11:44:15.770Z,14.56
2019-03-21T11:45:15.752Z,14.64
2019-03-21T11:46:16.016Z,14.64
2019-03-21T11:47:15.741Z,14.7
2019-03-21T11:48:15.774Z,14.7
2019-03-21T11:49:15.747Z,14.66
2019-03-21T11:50:15.794Z,14.73
2019-03-21T11:51:15.765Z,14.77
2019-03-21T11:52:19.075Z,14.79
2019-03-21T11:53:15.774Z,14.84
2019-03-21T11:54:15.719Z,14.94
2019-03-21T11:55:15.737Z,15
2019-03-21T11:56:15.725Z,15.01
2019-03-21T11:57:15.717Z,15.02
2019-03-21T11:58:18.038Z,15.05
2019-03-21T11:59:15.739Z,15.04
2019-03-21T12:00:15.721Z,15.07
2019-03-21T12:01:16.901Z,15.02
2019-03-21T12:02:27.684Z,15.02
2019-03-21T12:03:15.818Z,15.09
2019-03-21T12:04:15.751Z,15.12
2019-03-21T12:05:15.733Z,15.17
2019-03-21T12:06:15.714Z,15.19
2019-03-21T12:07:15.694Z,15.25
2019-03-21T12:08:15.930Z,15.25
2019-03-21T12:09:15.736Z,15.31
2019-03-21T12:10:15.699Z,15.31
2019-03-21T12:11:15.683Z,15.35
2019-03-21T12:12:15.702Z,15.36
2019-03-21T12:13:15.687Z,15.35
2019-03-21T12:14:15.736Z,15.42
2019-03-21T12:15:15.769Z,15.46
2019-03-21T12:16:15.747Z,15.49
2019-03-21T12:17:15.678Z,15.45
2019-03-21T12:18:15.723Z,15.47
2019-03-21T12:19:15.720Z,15.5
2019-03-21T12:20:15.664Z,15.56
2019-03-21T12:21:15.671Z,15.59
2019-03-21T12:22:15.664Z,15.6
2019-03-21T12:23:15.684Z,15.64
2019-03-21T12:24:15.677Z,15.69
2019-03-21T12:25:15.653Z,15.71
2019-03-21T12:26:15.705Z,15.8
2019-03-21T12:27:15.672Z,15.78
2019-03-21T12:28:15.686Z,15.85
2019-03-21T12:29:15.660Z,15.94
2019-03-21T12:30:15.693Z,15.67
2019-03-21T12:31:15.689Z,15.73
2019-03-21T12:32:15.659Z,15.77
2019-03-21T12:33:15.684Z,15.9
2019-03-21T12:34:15.651Z,15.84
2019-03-21T12:35:15.667Z,15.8
2019-03-21T12:36:15.692Z,15.73
2019-03-21T12:37:15.685Z,15.8
2019-03-21T12:38:15.675Z,15.91
2019-03-21T12:39:15.670Z,16.05
2019-03-21T12:40:15.630Z,16.14
2019-03-21T12:41:15.698Z,16.24
2019-03-21T12:42:15.633Z,16.12
2019-03-21T12:43:15.640Z,16.16
2019-03-21T12:44:15.663Z,16.29
2019-03-21T12:45:15.700Z,16.21
2019-03-21T12:46:15.753Z,16.29
2019-03-21T12:47:15.674Z,16.42
2019-03-21T12:48:15.632Z,16.45
2019-03-21T12:49:15.665Z,16.5
2019-03-21T12:50:15.642Z,16.42
2019-03-21T12:51:15.655Z,16.49
2019-03-21T12:52:15.713Z,16.46
2019-03-21T12:53:15.662Z,16.52
2019-03-21T12:54:15.671Z,16.63
2019-03-21T12:55:15.611Z,16.7
2019-03-21T12:56:15.714Z,16.77
2019-03-21T12:57:15.625Z,16.68
2019-03-21T12:58:15.625Z,16.83
2019-03-21T12:59:15.624Z,16.86
2019-03-21T13:00:15.640Z,16.98
2019-03-21T13:01:15.625Z,16.97
2019-03-21T13:02:15.637Z,17.04
2019-03-21T13:03:15.684Z,17.05
2019-03-21T13:04:15.646Z,17.02
2019-03-21T13:05:15.618Z,17.01
2019-03-21T13:06:15.612Z,16.98
2019-03-21T13:07:17.732Z,16.99
2019-03-21T13:08:15.671Z,17.02
2019-03-21T13:09:15.646Z,17.08
2019-03-21T13:10:15.612Z,17.15
2019-03-21T13:11:15.645Z,17.22
2019-03-21T13:12:15.622Z,17.19
2019-03-21T13:13:15.760Z,17.25